createdAt,value
2018-04-09T00:00:54.086Z,4.80
2018-04-09T00:01:52.933Z,5.10
2018-04-09T00:02:53.139Z,5.00
2018-04-09T00:03:53.271Z,4.90
2018-04-09T00:04:53.437Z,5.10
2018-04-09T00:05:53.604Z,4.90
2018-04-09T00:06:53.764Z,5.00
2018-04-09T00:07:53.939Z,5.30
2018-04-09T00:08:54.105Z,5.20
2018-04-09T00:09:54.271Z,5.40
2018-04-09T00:10:54.445Z,5.00
2018-04-09T00:11:54.618Z,5.00
2018-04-09T00:12:54.800Z,5.80
2018-04-09T00:13:54.982Z,5.10
2018-04-09T00:14:55.150Z,4.90
2018-04-09T00:15:55.315Z,5.10
2018-04-09T00:16:55.488Z,5.20
2018-04-09T00:17:55.653Z,5.20
2018-04-09T00:18:55.819Z,5.10
2018-04-09T00:19:55.997Z,5.50
2018-04-09T00:20:56.168Z,5.10
2018-04-09T00:21:56.337Z,5.40
2018-04-09T00:22:56.509Z,5.30
2018-04-09T00:23:56.675Z,5.00
2018-04-09T00:24:56.851Z,5.20
2018-04-09T00:25:57.010Z,5.20
2018-04-09T00:26:57.180Z,5.20
2018-04-09T00:27:57.355Z,5.20
2018-04-09T00:28:57.531Z,5.30
2018-04-09T00:29:57.690Z,4.90
2018-04-09T00:30:57.860Z,5.10
2018-04-09T00:31:58.033Z,5.30
2018-04-09T00:32:58.197Z,6.10
2018-04-09T00:33:58.388Z,5.70
2018-04-09T00:34:58.562Z,5.50
2018-04-09T00:35:58.731Z,5.60
2018-04-09T00:36:58.895Z,5.70
2018-04-09T00:37:59.061Z,6.00
2018-04-09T00:38:59.237Z,5.90
2018-04-09T00:39:59.405Z,5.50
2018-04-09T00:40:59.571Z,5.50
2018-04-09T00:41:59.749Z,4.80
2018-04-09T00:42:59.928Z,5.30
2018-04-09T00:44:00.311Z,5.20
2018-04-09T00:45:00.312Z,5.10
2018-04-09T00:46:00.478Z,4.80
2018-04-09T00:47:00.652Z,4.80
2018-04-09T00:48:00.823Z,5.40
2018-04-09T00:49:00.983Z,5.60
2018-04-09T00:50:01.196Z,5.50
2018-04-09T00:51:01.324Z,5.40
2018-04-09T00:52:01.490Z,5.90
2018-04-09T00:53:01.661Z,5.80
2018-04-09T00:54:01.834Z,5.80
2018-04-09T00:55:02.000Z,6.00
2018-04-09T00:56:02.165Z,6.00
2018-04-09T00:57:02.337Z,5.80
2018-04-09T00:58:02.505Z,5.70
2018-04-09T00:59:02.677Z,5.80
2018-04-09T01:00:02.849Z,5.60
2018-04-09T01:01:03.012Z,5.80
2018-04-09T01:02:03.188Z,5.40
2018-04-09T01:03:03.355Z,5.50
2018-04-09T01:04:03.526Z,5.60
2018-04-09T01:05:03.697Z,5.30
2018-04-09T01:06:03.860Z,5.50
2018-04-09T01:08:36.657Z,6.00
2018-04-09T01:09:36.341Z,6.10
2018-04-09T01:10:36.500Z,5.80
2018-04-09T01:11:36.652Z,6.00
2018-04-09T01:12:36.825Z,5.50
2018-04-09T01:13:37.010Z,5.70
2018-04-09T01:14:37.582Z,5.80
2018-04-09T01:15:37.778Z,5.40
2018-04-09T01:16:37.956Z,5.40
2018-04-09T01:17:38.162Z,4.80
2018-04-09T01:18:38.343Z,5.80
2018-04-09T01:19:38.516Z,5.90
2018-04-09T01:20:38.659Z,6.10
2018-04-09T01:21:38.838Z,5.70
2018-04-09T01:22:38.985Z,5.60
2018-04-09T01:23:38.770Z,6.10
2018-04-09T01:24:38.940Z,6.30
2018-04-09T01:25:39.110Z,6.30
2018-04-09T01:26:39.276Z,6.20
2018-04-09T01:27:39.449Z,6.10
2018-04-09T01:28:39.611Z,6.60
2018-04-09T01:29:39.782Z,6.00
2018-04-09T01:30:39.953Z,5.50
2018-04-09T01:31:40.125Z,6.30
2018-04-09T01:32:40.291Z,6.20
2018-04-09T01:33:40.464Z,6.10
2018-04-09T01:34:40.629Z,6.00
2018-04-09T01:35:40.797Z,5.90
2018-04-09T01:36:40.961Z,5.70
2018-04-09T01:37:41.128Z,5.20
2018-04-09T01:38:41.295Z,4.90
2018-04-09T01:39:41.466Z,4.70
2018-04-09T01:40:41.634Z,5.10
2018-04-09T01:41:41.800Z,5.00
2018-04-09T01:42:41.967Z,5.40
2018-04-09T01:43:42.138Z,5.40
2018-04-09T01:44:42.301Z,5.70
2018-04-09T01:45:42.472Z,5.90
2018-04-09T01:46:42.641Z,5.50
2018-04-09T01:47:42.806Z,5.80
2018-04-09T01:48:42.983Z,6.50
2018-04-09T01:49:43.146Z,6.10
2018-04-09T01:50:43.313Z,7.00
2018-04-09T01:51:43.479Z,6.80
2018-04-09T01:52:43.646Z,6.10
2018-04-09T01:53:43.835Z,6.60
2018-04-09T01:54:43.999Z,6.10
2018-04-09T01:55:44.162Z,6.20
2018-04-09T01:56:44.335Z,6.20
2018-04-09T01:57:44.501Z,6.40
2018-04-09T01:58:44.669Z,5.80
2018-04-09T01:59:44.837Z,5.30
2018-04-09T02:00:45.019Z,4.90
2018-04-09T02:01:45.189Z,4.70
2018-04-09T02:02:45.354Z,4.70
2018-04-09T02:03:45.515Z,4.50
2018-04-09T02:04:45.698Z,4.40
2018-04-09T02:05:45.871Z,4.80
2018-04-09T02:06:46.038Z,5.30
2018-04-09T02:07:46.207Z,5.10
2018-04-09T02:08:46.373Z,5.10
2018-04-09T02:09:46.547Z,5.50
2018-04-09T02:10:46.709Z,5.40
2018-04-09T02:11:46.877Z,5.40
2018-04-09T02:12:47.042Z,5.20
2018-04-09T02:13:47.206Z,5.60
2018-04-09T02:14:47.377Z,6.20
2018-04-09T02:15:47.543Z,5.40
2018-04-09T02:16:47.713Z,5.40
2018-04-09T02:17:47.889Z,5.70
2018-04-09T02:18:48.050Z,5.70
2018-04-09T02:19:48.217Z,5.80
2018-04-09T02:20:48.388Z,5.60
2018-04-09T02:21:48.559Z,5.40
2018-04-09T02:22:48.732Z,5.60
2018-04-09T02:23:48.904Z,5.40
2018-04-09T02:24:49.065Z,5.10
2018-04-09T02:25:49.235Z,5.60
2018-04-09T02:26:49.405Z,6.30
2018-04-09T02:27:49.580Z,6.90
2018-04-09T02:28:49.746Z,6.50
2018-04-09T02:29:49.911Z,7.00
2018-04-09T02:30:50.073Z,7.10
2018-04-09T02:31:50.247Z,6.70
2018-04-09T02:32:50.410Z,6.70
2018-04-09T02:33:50.578Z,7.00
2018-04-09T02:34:50.742Z,6.50
2018-04-09T02:35:50.908Z,6.80
2018-04-09T02:36:51.079Z,6.00
2018-04-09T02:37:51.249Z,5.30
2018-04-09T02:38:51.408Z,6.40
2018-04-09T02:39:51.575Z,6.30
2018-04-09T02:40:51.748Z,6.20
2018-04-09T02:41:51.925Z,6.60
2018-04-09T02:42:52.088Z,6.30
2018-04-09T02:43:52.255Z,6.40
2018-04-09T02:44:52.421Z,5.70
2018-04-09T02:45:52.585Z,6.30
2018-04-09T02:46:52.753Z,6.00
2018-04-09T02:47:52.918Z,5.80
2018-04-09T02:48:53.087Z,5.90
2018-04-09T02:49:53.263Z,5.50
2018-04-09T02:50:53.425Z,5.20
2018-04-09T02:51:53.595Z,5.50
2018-04-09T02:52:53.760Z,5.40
2018-04-09T02:53:53.930Z,4.90
2018-04-09T02:54:54.160Z,5.40
2018-04-09T02:55:54.274Z,5.80
2018-04-09T02:56:54.437Z,5.60
2018-04-09T02:57:54.604Z,6.20
2018-04-09T02:58:54.780Z,6.20
2018-04-09T02:59:54.951Z,6.70
2018-04-09T03:00:55.122Z,6.20
2018-04-09T03:01:55.285Z,6.80
2018-04-09T03:02:55.454Z,6.40
2018-04-09T03:03:55.621Z,6.10
2018-04-09T03:04:55.791Z,6.30
2018-04-09T03:05:55.956Z,6.00
2018-04-09T03:06:56.131Z,6.10
2018-04-09T03:07:56.298Z,6.10
2018-04-09T03:08:56.470Z,6.10
2018-04-09T03:09:56.638Z,6.10
2018-04-09T03:10:56.798Z,6.50
2018-04-09T03:11:56.964Z,6.50
2018-04-09T03:12:57.131Z,6.20
2018-04-09T03:13:57.292Z,6.00
2018-04-09T03:14:57.461Z,6.50
2018-04-09T03:15:57.636Z,6.10
2018-04-09T03:16:57.804Z,6.50
2018-04-09T03:17:57.972Z,6.40
2018-04-09T03:18:58.138Z,6.20
2018-04-09T03:19:58.305Z,6.50
2018-04-09T03:20:58.470Z,6.80
2018-04-09T03:21:58.645Z,6.90
2018-04-09T03:22:58.803Z,6.70
2018-04-09T03:23:58.973Z,6.50
2018-04-09T03:24:59.148Z,5.90
2018-04-09T03:25:59.307Z,4.90
2018-04-09T03:26:59.476Z,5.20
2018-04-09T03:27:59.646Z,5.80
2018-04-09T03:28:59.809Z,5.50
2018-04-09T03:29:59.972Z,5.80
2018-04-09T03:31:00.144Z,5.90
2018-04-09T03:32:00.335Z,5.70
2018-04-09T03:33:00.487Z,5.90
2018-04-09T03:34:00.661Z,6.30
2018-04-09T03:35:00.829Z,5.50
2018-04-09T03:36:00.993Z,5.90
2018-04-09T03:37:01.155Z,6.00
2018-04-09T03:38:01.325Z,6.40
2018-04-09T03:39:01.495Z,6.90
2018-04-09T03:40:01.664Z,6.00
2018-04-09T03:41:01.826Z,6.90
2018-04-09T03:42:01.999Z,6.60
2018-04-09T03:43:02.167Z,6.60
2018-04-09T03:44:02.336Z,6.20
2018-04-09T03:45:02.497Z,6.60
2018-04-09T03:46:02.671Z,6.10
2018-04-09T03:47:02.839Z,5.30
2018-04-09T03:48:03.003Z,6.10
2018-04-09T03:49:03.173Z,5.70
2018-04-09T03:50:03.338Z,5.40
2018-04-09T03:51:03.500Z,5.30
2018-04-09T03:52:03.671Z,6.00
2018-04-09T03:53:03.843Z,5.70
2018-04-09T03:54:04.011Z,6.00
2018-04-09T03:55:04.188Z,5.80
2018-04-09T03:56:04.354Z,5.60
2018-04-09T03:57:04.523Z,5.90
2018-04-09T03:58:04.682Z,5.80
2018-04-09T03:59:04.856Z,5.80
2018-04-09T04:00:05.021Z,5.90
2018-04-09T04:01:05.188Z,5.80
2018-04-09T04:02:05.353Z,6.50
2018-04-09T04:03:05.523Z,6.00
2018-04-09T04:04:05.692Z,6.50
2018-04-09T04:05:05.865Z,6.50
2018-04-09T04:06:06.033Z,6.50
2018-04-09T04:07:06.206Z,6.50
2018-04-09T04:08:06.369Z,6.00
2018-04-09T04:09:06.585Z,5.90
2018-04-09T04:10:06.707Z,6.50
2018-04-09T04:11:06.880Z,6.50
2018-04-09T04:12:07.048Z,6.40
2018-04-09T04:13:07.221Z,6.40
2018-04-09T04:14:07.384Z,6.00
2018-04-09T04:15:07.551Z,6.30
2018-04-09T04:16:07.703Z,6.50
2018-04-09T04:17:07.882Z,6.20
2018-04-09T04:18:08.052Z,6.30
2018-04-09T04:19:08.215Z,6.20
2018-04-09T04:20:08.387Z,6.40
2018-04-09T04:21:08.554Z,6.10
2018-04-09T04:22:08.733Z,6.60
2018-04-09T04:23:08.882Z,6.30
2018-04-09T04:24:09.050Z,6.50
2018-04-09T04:25:09.223Z,6.70
2018-04-09T04:26:09.380Z,7.10
2018-04-09T04:27:09.546Z,6.30
2018-04-09T04:28:09.717Z,7.10
2018-04-09T04:29:09.888Z,6.70
2018-04-09T04:30:10.057Z,6.90
2018-04-09T04:31:10.239Z,6.90
2018-04-09T04:32:10.394Z,7.10
2018-04-09T04:33:10.567Z,6.90
2018-04-09T04:34:10.725Z,7.00
2018-04-09T04:35:10.893Z,6.90
2018-04-09T04:36:11.068Z,6.90
2018-04-09T04:37:11.226Z,6.80
2018-04-09T04:38:11.396Z,6.90
2018-04-09T04:39:11.569Z,6.40
2018-04-09T04:40:11.739Z,6.80
2018-04-09T04:41:11.902Z,6.60
2018-04-09T04:42:12.076Z,7.00
2018-04-09T04:43:12.249Z,6.50
2018-04-09T04:44:12.419Z,6.40
2018-04-09T04:45:12.592Z,6.80
2018-04-09T04:46:12.766Z,7.00
2018-04-09T04:47:12.924Z,6.70
2018-04-09T04:48:13.093Z,6.40
2018-04-09T04:49:13.256Z,6.60
2018-04-09T04:50:13.429Z,6.50
2018-04-09T04:51:13.609Z,5.80
2018-04-09T04:52:13.784Z,6.20
2018-04-09T04:53:13.957Z,6.50
2018-04-09T04:54:14.119Z,6.30
2018-04-09T04:55:14.283Z,6.20
2018-04-09T04:56:14.453Z,6.60
2018-04-09T04:57:14.624Z,6.60
2018-04-09T04:58:14.790Z,6.70
2018-04-09T04:59:14.955Z,7.00
2018-04-09T05:00:15.126Z,6.90
2018-04-09T05:01:15.298Z,6.90
2018-04-09T05:02:15.466Z,6.80
2018-04-09T05:03:15.642Z,6.70
2018-04-09T05:04:15.788Z,7.10
2018-04-09T05:05:15.964Z,6.60
2018-04-09T05:06:16.151Z,6.60
2018-04-09T05:07:16.283Z,7.00
2018-04-09T05:08:16.440Z,6.90
2018-04-09T05:09:16.619Z,7.10
2018-04-09T05:10:16.784Z,7.40
2018-04-09T05:11:16.956Z,7.10
2018-04-09T05:12:17.124Z,6.60
2018-04-09T05:13:17.297Z,7.10
2018-04-09T05:14:17.461Z,7.00
2018-04-09T05:15:17.633Z,6.60
2018-04-09T05:16:17.801Z,7.40
2018-04-09T05:17:17.968Z,6.30
2018-04-09T05:18:18.130Z,7.00
2018-04-09T05:19:18.301Z,6.90
2018-04-09T05:20:18.476Z,7.50
2018-04-09T05:21:18.637Z,8.70
2018-04-09T05:22:18.809Z,7.90
2018-04-09T05:23:18.971Z,8.40
2018-04-09T05:24:19.133Z,8.50
2018-04-09T05:25:19.307Z,8.50
2018-04-09T05:26:19.487Z,8.60
2018-04-09T05:27:19.642Z,8.50
2018-04-09T05:28:19.812Z,8.30
2018-04-09T05:29:19.976Z,8.20
2018-04-09T05:30:20.146Z,7.90
2018-04-09T05:31:20.323Z,8.20
2018-04-09T05:32:20.490Z,8.40
2018-04-09T05:33:20.656Z,7.90
2018-04-09T05:34:20.818Z,8.00
2018-04-09T05:35:21.005Z,7.70
2018-04-09T05:36:21.180Z,7.80
2018-04-09T05:37:21.353Z,7.50
2018-04-09T05:38:21.525Z,7.40
2018-04-09T05:39:21.692Z,7.50
2018-04-09T05:40:21.859Z,7.20
2018-04-09T05:41:22.022Z,8.00
2018-04-09T05:42:22.190Z,7.80
2018-04-09T05:43:22.360Z,7.10
2018-04-09T05:44:22.523Z,7.30
2018-04-09T05:45:22.697Z,7.60
2018-04-09T05:46:22.864Z,7.40
2018-04-09T05:47:23.047Z,7.20
2018-04-09T05:48:23.210Z,7.00
2018-04-09T05:49:23.374Z,7.60
2018-04-09T05:50:23.541Z,7.20
2018-04-09T05:51:23.702Z,7.50
2018-04-09T05:52:23.876Z,7.30
2018-04-09T05:53:24.047Z,7.10
2018-04-09T05:54:24.210Z,7.40
2018-04-09T05:55:24.395Z,7.40
2018-04-09T05:56:24.565Z,7.20
2018-04-09T05:57:24.731Z,6.90
2018-04-09T05:58:24.895Z,7.00
2018-04-09T05:59:25.072Z,6.60
2018-04-09T06:00:25.238Z,7.10
2018-04-09T06:01:25.406Z,6.70
2018-04-09T06:02:25.573Z,7.00
2018-04-09T06:03:25.752Z,7.20
2018-04-09T06:04:25.929Z,7.30
2018-04-09T06:05:26.086Z,7.50
2018-04-09T06:06:26.251Z,7.90
2018-04-09T06:07:26.416Z,7.00
2018-04-09T06:08:26.578Z,7.50
2018-04-09T06:09:26.752Z,7.20
2018-04-09T06:10:26.918Z,7.00
2018-04-09T06:11:27.741Z,7.20
2018-04-09T06:12:27.282Z,7.20
2018-04-09T06:13:27.450Z,7.30
2018-04-09T06:14:27.616Z,7.40
2018-04-09T06:15:27.786Z,7.90
2018-04-09T06:16:27.954Z,7.80
2018-04-09T06:17:28.116Z,8.00
2018-04-09T06:18:28.282Z,10.00
2018-04-09T06:19:28.451Z,9.90
2018-04-09T06:20:28.621Z,10.80
2018-04-09T06:21:28.782Z,12.20
2018-04-09T06:22:28.947Z,11.20
2018-04-09T06:23:29.117Z,10.60
2018-04-09T06:24:29.284Z,9.70
2018-04-09T06:25:29.451Z,9.50
2018-04-09T06:26:29.625Z,8.90
2018-04-09T06:27:29.788Z,8.40
2018-04-09T06:28:29.956Z,14.00
2018-04-09T06:29:30.124Z,14.10
2018-04-09T06:30:30.295Z,7.90
2018-04-09T06:31:30.471Z,8.10
2018-04-09T06:32:31.235Z,8.20
2018-04-09T06:33:30.779Z,7.70
2018-04-09T06:34:30.952Z,8.10
2018-04-09T06:35:31.128Z,7.30
2018-04-09T06:36:31.302Z,7.50
2018-04-09T06:37:31.464Z,8.20
2018-04-09T06:38:31.647Z,8.00
2018-04-09T06:39:31.809Z,8.10
2018-04-09T06:40:31.974Z,8.20
2018-04-09T06:41:32.147Z,8.10
2018-04-09T06:42:32.316Z,8.70
2018-04-09T06:43:32.485Z,8.50
2018-04-09T06:44:32.654Z,9.50
2018-04-09T06:45:32.820Z,9.10
2018-04-09T06:46:32.993Z,8.50
2018-04-09T06:47:33.169Z,9.00
2018-04-09T06:48:33.340Z,9.20
2018-04-09T06:49:33.507Z,9.30
2018-04-09T06:50:33.674Z,9.20
2018-04-09T06:51:34.731Z,8.70
2018-04-09T06:52:34.029Z,8.80
2018-04-09T06:53:34.205Z,9.50
2018-04-09T06:54:34.392Z,9.10
2018-04-09T06:55:34.551Z,9.30
2018-04-09T06:56:34.716Z,9.30
2018-04-09T06:57:34.892Z,9.10
2018-04-09T06:58:35.057Z,9.40
2018-04-09T06:59:35.743Z,9.30
2018-04-09T07:00:35.418Z,9.30
2018-04-09T07:01:35.588Z,9.70
2018-04-09T07:02:36.728Z,9.30
2018-04-09T07:03:35.899Z,9.30
2018-04-09T07:04:36.063Z,9.30
2018-04-09T07:05:36.239Z,8.80
2018-04-09T07:06:37.247Z,9.50
2018-04-09T07:07:36.554Z,10.30
2018-04-09T07:08:36.729Z,9.20
2018-04-09T07:09:37.736Z,9.90
2018-04-09T07:10:37.729Z,10.10
2018-04-09T07:11:37.741Z,11.20
2018-04-09T07:12:37.277Z,11.50
2018-04-09T07:13:37.451Z,14.40
2018-04-09T07:14:37.617Z,14.50
2018-04-09T07:15:37.785Z,15.50
2018-04-09T07:16:37.959Z,10.50
2018-04-09T07:17:38.137Z,9.60
2018-04-09T07:18:38.303Z,10.20
2018-04-09T07:19:38.472Z,9.90
2018-04-09T07:20:38.641Z,9.30
2018-04-09T07:21:38.820Z,9.40
2018-04-09T07:22:39.745Z,10.80
2018-04-09T07:23:39.161Z,11.10
2018-04-09T07:24:39.329Z,10.10
2018-04-09T07:25:39.498Z,10.10
2018-04-09T07:26:39.674Z,9.80
2018-04-09T07:27:39.850Z,9.70
2018-04-09T07:28:40.026Z,9.50
2018-04-09T07:29:40.738Z,9.80
2018-04-09T07:30:40.408Z,10.10
2018-04-09T07:31:40.576Z,9.40
2018-04-09T07:32:40.774Z,9.90
2018-04-09T07:33:40.925Z,9.20
2018-04-09T07:34:41.095Z,9.00
2018-04-09T07:35:41.270Z,9.60
2018-04-09T07:36:41.438Z,10.00
2018-04-09T07:37:41.602Z,9.70
2018-04-09T07:38:41.776Z,9.70
2018-04-09T07:39:41.948Z,9.50
2018-04-09T07:40:42.117Z,9.80
2018-04-09T07:41:42.294Z,9.80
2018-04-09T07:42:42.465Z,9.70
2018-04-09T07:43:42.641Z,9.60
2018-04-09T07:44:42.812Z,9.40
2018-04-09T07:45:42.986Z,10.10
2018-04-09T07:46:43.155Z,9.70
2018-04-09T07:47:43.325Z,9.70
2018-04-09T07:48:43.497Z,9.70
2018-04-09T07:49:43.677Z,9.60
2018-04-09T07:50:43.849Z,9.70
2018-04-09T07:51:44.061Z,9.00
2018-04-09T07:52:44.197Z,9.60
2018-04-09T07:53:44.370Z,9.50
2018-04-09T07:54:44.570Z,9.90
2018-04-09T07:55:44.749Z,9.80
2018-04-09T07:56:44.919Z,9.40
2018-04-09T07:57:45.094Z,9.10
2018-04-09T07:58:45.293Z,9.70
2018-04-09T07:59:45.464Z,9.00
2018-04-09T08:00:45.641Z,9.20
2018-04-09T08:01:45.806Z,10.20
2018-04-09T08:02:45.973Z,9.60
2018-04-09T08:03:46.147Z,9.50
2018-04-09T08:04:46.319Z,10.00
2018-04-09T08:05:46.486Z,9.80
2018-04-09T08:06:46.666Z,10.40
2018-04-09T08:07:46.835Z,10.00
2018-04-09T08:08:47.004Z,10.20
2018-04-09T08:09:47.173Z,9.90
2018-04-09T08:10:47.345Z,9.70
2018-04-09T08:11:47.530Z,9.90
2018-04-09T08:12:48.254Z,9.70
2018-04-09T08:13:47.922Z,10.20
2018-04-09T08:14:48.090Z,9.70
2018-04-09T08:15:48.270Z,9.70
2018-04-09T08:16:48.440Z,10.10
2018-04-09T08:17:48.613Z,9.60
2018-04-09T08:18:48.784Z,10.10
2018-04-09T08:19:48.954Z,9.40
2018-04-09T08:20:49.124Z,10.20
2018-04-09T08:21:49.298Z,10.00
2018-04-09T08:22:49.471Z,9.70
2018-04-09T08:23:49.645Z,9.80
2018-04-09T08:24:49.820Z,10.50
2018-04-09T08:25:49.987Z,11.10
2018-04-09T08:26:50.758Z,10.60
2018-04-09T08:27:50.317Z,10.60
2018-04-09T08:28:50.493Z,10.90
2018-04-09T08:29:50.671Z,9.90
2018-04-09T08:30:50.840Z,9.90
2018-04-09T08:31:51.021Z,10.30
2018-04-09T08:32:51.191Z,9.90
2018-04-09T08:33:51.371Z,10.50
2018-04-09T08:34:51.549Z,10.60
2018-04-09T08:35:51.753Z,10.50
2018-04-09T08:36:51.969Z,10.30
2018-04-09T08:37:52.141Z,10.00
2018-04-09T08:38:52.326Z,9.80
2018-04-09T08:39:52.510Z,10.00
2018-04-09T08:40:52.693Z,10.00
2018-04-09T08:41:52.869Z,9.90
2018-04-09T08:42:53.045Z,9.60
2018-04-09T08:43:53.224Z,9.50
2018-04-09T08:44:53.391Z,9.60
2018-04-09T08:45:53.578Z,9.80
2018-04-09T08:46:54.252Z,10.00
2018-04-09T08:47:53.931Z,9.90
2018-04-09T08:48:54.098Z,9.50
2018-04-09T08:49:54.278Z,10.10
2018-04-09T08:50:54.444Z,9.20
2018-04-09T08:51:54.647Z,9.40
2018-04-09T08:52:54.817Z,9.60
2018-04-09T08:53:54.990Z,9.50
2018-04-09T08:54:55.170Z,9.50
2018-04-09T08:55:55.347Z,9.30
2018-04-09T08:56:55.526Z,9.90
2018-04-09T08:57:56.267Z,9.50
2018-04-09T08:58:56.754Z,9.30
2018-04-09T08:59:55.941Z,9.20
2018-04-09T09:00:56.117Z,9.60
2018-04-09T09:01:56.293Z,9.00
2018-04-09T09:02:56.468Z,9.80
2018-04-09T09:03:56.662Z,9.90
2018-04-09T09:04:56.855Z,9.70
2018-04-09T09:05:57.033Z,9.20
2018-04-09T09:06:57.227Z,9.40
2018-04-09T09:07:57.399Z,9.10
2018-04-09T09:08:57.597Z,9.50
2018-04-09T09:09:57.768Z,9.60
2018-04-09T09:10:57.944Z,10.10
2018-04-09T09:11:58.119Z,10.10
2018-04-09T09:12:58.301Z,9.70
2018-04-09T09:13:58.492Z,9.20
2018-04-09T09:14:58.665Z,9.40
2018-04-09T09:15:58.866Z,9.60
2018-04-09T09:16:59.038Z,9.90
2018-04-09T09:17:59.213Z,9.80
2018-04-09T09:18:59.388Z,9.30
2018-04-09T09:19:59.564Z,9.20
2018-04-09T09:20:59.757Z,9.70
2018-04-09T09:21:59.930Z,9.80
2018-04-09T09:23:00.106Z,9.80
2018-04-09T09:24:00.290Z,10.10
2018-04-09T09:25:00.465Z,9.50
2018-04-09T09:26:01.267Z,9.50
2018-04-09T09:27:00.827Z,9.40
2018-04-09T09:28:01.022Z,9.70
2018-04-09T09:29:01.200Z,9.20
2018-04-09T09:30:01.377Z,9.50
2018-04-09T09:31:02.262Z,9.50
2018-04-09T09:32:01.691Z,9.30
2018-04-09T09:33:02.799Z,9.70
2018-04-09T09:34:02.097Z,9.10
2018-04-09T09:35:02.271Z,9.30
2018-04-09T09:36:02.463Z,9.20
2018-04-09T09:37:02.650Z,9.50
2018-04-09T09:38:02.827Z,9.10
2018-04-09T09:39:03.005Z,9.20
2018-04-09T09:40:03.186Z,9.50
2018-04-09T09:41:03.377Z,9.10
2018-04-09T09:42:03.563Z,9.40
2018-04-09T09:43:03.737Z,9.70
2018-04-09T09:44:03.925Z,9.00
2018-04-09T09:45:04.117Z,9.50
2018-04-09T09:46:04.287Z,9.30
2018-04-09T09:47:04.473Z,8.90
2018-04-09T09:48:04.652Z,9.00
2018-04-09T09:49:04.829Z,8.90
2018-04-09T09:50:05.006Z,9.00
2018-04-09T09:51:05.185Z,8.80
2018-04-09T09:52:05.367Z,9.50
2018-04-09T09:53:05.545Z,8.90
2018-04-09T09:54:05.740Z,9.00
2018-04-09T09:55:05.919Z,8.70
2018-04-09T09:56:06.099Z,8.50
2018-04-09T09:57:06.280Z,8.80
2018-04-09T09:58:06.463Z,8.90
2018-04-09T09:59:06.635Z,8.70
2018-04-09T10:00:06.820Z,8.70
2018-04-09T10:01:06.999Z,8.20
2018-04-09T10:02:07.177Z,7.90
2018-04-09T10:03:07.359Z,7.80
2018-04-09T10:04:07.550Z,9.10
2018-04-09T10:05:07.725Z,8.50
2018-04-09T10:06:07.907Z,8.10
2018-04-09T10:07:08.094Z,7.40
2018-04-09T10:08:08.277Z,8.70
2018-04-09T10:09:08.453Z,8.40
2018-04-09T10:10:08.641Z,8.00
2018-04-09T10:11:09.776Z,8.50
2018-04-09T10:12:08.959Z,7.70
2018-04-09T10:13:09.174Z,8.60
2018-04-09T10:14:09.378Z,8.30
2018-04-09T10:15:09.565Z,8.90
2018-04-09T10:16:09.746Z,9.20
2018-04-09T10:17:10.784Z,9.00
2018-04-09T10:18:10.089Z,9.50
2018-04-09T10:19:10.282Z,9.50
2018-04-09T10:20:10.465Z,9.40
2018-04-09T10:21:10.644Z,9.40
2018-04-09T10:22:10.828Z,9.00
2018-04-09T10:23:11.004Z,8.60
2018-04-09T10:24:11.186Z,8.30
2018-04-09T10:25:11.379Z,8.20
2018-04-09T10:26:11.574Z,8.10
2018-04-09T10:27:11.784Z,8.40
2018-04-09T10:28:11.995Z,7.70
2018-04-09T10:29:12.179Z,8.40
2018-04-09T10:30:12.369Z,7.70
2018-04-09T10:31:12.554Z,7.20
2018-04-09T10:32:12.736Z,7.50
2018-04-09T10:33:12.922Z,7.70
2018-04-09T10:34:13.116Z,6.80
2018-04-09T10:35:13.304Z,6.90
2018-04-09T10:36:13.494Z,7.30
2018-04-09T10:37:13.673Z,7.10
2018-04-09T10:38:13.857Z,6.60
2018-04-09T10:39:14.045Z,6.60
2018-04-09T10:40:14.221Z,7.10
2018-04-09T10:41:14.401Z,6.60
2018-04-09T10:42:14.582Z,6.70
2018-04-09T10:43:14.769Z,6.80
2018-04-09T10:44:14.948Z,6.40
2018-04-09T10:45:15.142Z,6.10
2018-04-09T10:46:15.330Z,6.80
2018-04-09T10:47:15.515Z,6.50
2018-04-09T10:48:15.694Z,6.80
2018-04-09T10:49:15.880Z,7.00
2018-04-09T10:50:16.085Z,7.30
2018-04-09T10:51:16.282Z,6.50
2018-04-09T10:52:16.466Z,6.90
2018-04-09T10:53:16.653Z,7.10
2018-04-09T10:54:16.833Z,6.90
2018-04-09T10:55:17.783Z,6.70
2018-04-09T10:56:17.214Z,6.90
2018-04-09T10:57:17.398Z,6.80
2018-04-09T10:58:17.587Z,7.40
2018-04-09T10:59:17.789Z,7.20
2018-04-09T11:00:17.965Z,7.30
2018-04-09T11:01:18.149Z,7.40
2018-04-09T11:02:18.333Z,7.40
2018-04-09T11:03:18.525Z,7.80
2018-04-09T11:04:20.209Z,7.10
2018-04-09T11:05:18.870Z,7.10
2018-04-09T11:06:19.056Z,7.30
2018-04-09T11:07:19.237Z,7.40
2018-04-09T11:08:19.420Z,7.60
2018-04-09T11:09:19.601Z,7.60
2018-04-09T11:10:19.788Z,7.50
2018-04-09T11:11:19.973Z,7.60
2018-04-09T11:12:20.155Z,7.50
2018-04-09T11:13:20.350Z,7.10
2018-04-09T11:14:20.533Z,7.40
2018-04-09T11:15:20.777Z,7.60
2018-04-09T11:16:20.900Z,7.40
2018-04-09T11:17:21.087Z,8.50
2018-04-09T11:18:21.297Z,8.10
2018-04-09T11:19:21.479Z,8.10
2018-04-09T11:20:21.661Z,8.10
2018-04-09T11:21:21.843Z,8.20
2018-04-09T11:22:22.021Z,9.00
2018-04-09T11:23:22.206Z,8.00
2018-04-09T11:24:22.392Z,7.60
2018-04-09T11:25:23.339Z,8.40
2018-04-09T11:26:22.720Z,7.60
2018-04-09T11:27:22.927Z,8.00
2018-04-09T11:28:23.118Z,7.80
2018-04-09T11:29:23.299Z,8.30
2018-04-09T11:30:23.488Z,8.20
2018-04-09T11:31:23.698Z,7.90
2018-04-09T11:32:23.887Z,8.30
2018-04-09T11:33:24.076Z,8.50
2018-04-09T11:34:24.256Z,8.40
2018-04-09T11:35:24.441Z,7.80
2018-04-09T11:36:24.624Z,8.00
2018-04-09T11:37:24.810Z,7.40
2018-04-09T11:38:24.992Z,8.00
2018-04-09T11:39:25.179Z,8.40
2018-04-09T11:40:25.359Z,8.20
2018-04-09T11:41:25.549Z,8.50
2018-04-09T11:42:25.755Z,8.50
2018-04-09T11:43:25.932Z,8.50
2018-04-09T11:44:26.117Z,8.90
2018-04-09T11:45:26.297Z,8.10
2018-04-09T11:46:26.477Z,8.40
2018-04-09T11:47:26.665Z,8.50
2018-04-09T11:48:26.852Z,8.10
2018-04-09T11:49:27.032Z,8.70
2018-04-09T11:50:27.221Z,8.40
2018-04-09T11:51:27.400Z,8.40
2018-04-09T11:52:28.311Z,8.00
2018-04-09T11:53:27.738Z,8.10
2018-04-09T11:54:27.917Z,7.70
2018-04-09T11:55:28.099Z,7.40
2018-04-09T11:56:28.277Z,7.40
2018-04-09T11:57:28.456Z,7.40
2018-04-09T11:58:28.638Z,7.80
2018-04-09T11:59:28.864Z,7.40
2018-04-09T12:00:28.994Z,7.50
2018-04-09T12:01:29.171Z,6.50
2018-04-09T12:02:29.350Z,7.50
2018-04-09T12:03:29.528Z,6.40
2018-04-09T12:04:29.712Z,7.20
2018-04-09T12:05:29.895Z,7.20
2018-04-09T12:06:30.072Z,7.00
2018-04-09T12:07:53.824Z,6.40
2018-04-09T12:08:30.451Z,6.40
2018-04-09T12:09:30.620Z,6.00
2018-04-09T12:10:30.819Z,6.40
2018-04-09T12:11:30.973Z,6.20
2018-04-09T12:12:31.153Z,6.10
2018-04-09T12:13:31.336Z,6.10
2018-04-09T12:14:31.513Z,6.30
2018-04-09T12:15:31.694Z,6.00
2018-04-09T12:16:31.877Z,5.90
2018-04-09T12:17:32.055Z,5.70
2018-04-09T12:18:32.227Z,5.60
2018-04-09T12:19:32.407Z,5.30
2018-04-09T12:20:32.586Z,5.10
2018-04-09T12:21:32.770Z,5.70
2018-04-09T12:22:32.953Z,5.40
2018-04-09T12:23:33.131Z,5.60
2018-04-09T12:24:33.305Z,5.80
2018-04-09T12:25:33.478Z,5.60
2018-04-09T12:26:33.651Z,5.20
2018-04-09T12:27:33.817Z,4.90
2018-04-09T12:28:33.993Z,4.90
2018-04-09T12:29:34.169Z,5.40
2018-04-09T12:30:34.440Z,5.20
2018-04-09T12:31:34.521Z,4.90
2018-04-09T12:32:34.694Z,5.00
2018-04-09T12:33:34.865Z,5.10
2018-04-09T12:34:35.059Z,4.90
2018-04-09T12:35:35.225Z,4.70
2018-04-09T12:36:35.403Z,4.80
2018-04-09T12:37:35.579Z,5.30
2018-04-09T12:38:35.751Z,4.90
2018-04-09T12:39:35.918Z,4.90
2018-04-09T12:40:36.121Z,4.60
2018-04-09T12:41:36.295Z,4.60
2018-04-09T12:42:36.478Z,4.90
2018-04-09T12:43:36.659Z,4.60
2018-04-09T12:44:36.841Z,5.10
2018-04-09T12:45:37.063Z,4.80
2018-04-09T12:46:37.204Z,4.80
2018-04-09T12:47:37.381Z,4.50
2018-04-09T12:48:37.579Z,4.90
2018-04-09T12:49:37.753Z,4.60
2018-04-09T12:50:37.927Z,4.50
2018-04-09T12:51:38.117Z,5.00
2018-04-09T12:52:38.298Z,5.10
2018-04-09T12:53:38.485Z,4.80
2018-04-09T12:54:38.677Z,4.80
2018-04-09T12:55:38.862Z,4.90
2018-04-09T12:56:39.042Z,5.20
2018-04-09T12:59:25.528Z,4.30
2018-04-09T13:00:25.715Z,4.90
2018-04-09T13:01:25.903Z,5.10
2018-04-09T13:02:26.076Z,5.10
2018-04-09T13:03:26.264Z,5.10
2018-04-09T13:04:26.445Z,4.80
2018-04-09T13:05:26.637Z,4.80
2018-04-09T13:06:26.805Z,5.00
2018-04-09T13:07:27.003Z,5.10
2018-04-09T13:08:27.185Z,5.30
2018-04-09T13:09:27.366Z,4.90
2018-04-09T13:10:27.557Z,5.00
2018-04-09T13:11:27.746Z,5.10
2018-04-09T13:12:27.922Z,5.10
2018-04-09T13:13:28.126Z,4.80
2018-04-09T13:14:28.316Z,4.60
2018-04-09T13:15:28.492Z,5.00
2018-04-09T13:16:28.682Z,5.30
2018-04-09T13:17:28.863Z,5.30
2018-04-09T13:18:29.061Z,5.20
2018-04-09T13:19:29.243Z,5.20
2018-04-09T13:20:29.432Z,5.20
2018-04-09T13:21:29.609Z,5.30
2018-04-09T13:22:29.799Z,5.60